Time,TemperatureF,DewpointF,PressureIn,WindDirection,WindDirectionDegrees,WindSpeedMPH,WindSpeedGustMPH,Humidity,HourlyPrecipIn,Conditions,Clouds,dailyrainin,SoftwareType,DateUTC
2013-05-08 00:01:00,46.2,43.5,26.44,WNW,293,4.4,4.4,90,0.00,,,0.00,WUHU216HW,2013-05-08 04:01:00,
2013-05-08 00:06:00,46.2,43.5,26.44,West,270,4.6,4.6,90,0.00,,,0.00,WUHU216HW,2013-05-08 04:06:00,
2013-05-08 00:11:00,46.5,43.8,26.44,West,270,4.0,4.6,90,0.00,,,0.00,WUHU216HW,2013-05-08 04:11:00,
2013-05-08 00:16:00,46.5,43.8,26.44,WNW,293,5.3,5.8,90,0.00,,,0.00,WUHU216HW,2013-05-08 04:16:00,
2013-05-08 00:21:00,46.5,44.1,26.44,WNW,293,4.2,7.1,91,0.00,,,0.00,WUHU216HW,2013-05-08 04:21:00,
2013-05-08 00:26:00,46.5,44.1,26.44,WNW,293,5.3,7.1,91,0.00,,,0.00,WUHU216HW,2013-05-08 04:26:00,
2013-05-08 00:31:00,46.5,44.1,26.44,WNW,293,4.9,7.3,91,0.00,,,0.00,WUHU216HW,2013-05-08 04:31:00,
2013-05-08 00:36:00,46.5,44.1,26.44,WNW,293,6.4,7.3,91,0.00,,,0.00,WUHU216HW,2013-05-08 04:36:00,
2013-05-08 00:41:00,46.5,44.1,26.44,WNW,293,4.2,6.9,91,0.00,,,0.00,WUHU216HW,2013-05-08 04:41:00,
2013-05-08 00:46:00,46.5,44.1,26.44,West,270,4.0,6.4,91,0.00,,,0.00,WUHU216HW,2013-05-08 04:46:00,
2013-05-08 00:51:00,46.5,44.1,26.44,NW,315,6.2,6.2,91,0.00,,,0.00,WUHU216HW,2013-05-08 04:51:00,
2013-05-08 00:56:00,46.5,44.1,26.43,WNW,293,6.2,7.3,91,0.00,,,0.00,WUHU216HW,2013-05-08 04:56:00,
2013-05-08 01:01:00,46.5,44.1,26.44,WNW,293,4.9,7.3,91,0.00,,,0.00,WUHU216HW,2013-05-08 05:01:00,
2013-05-08 01:06:00,46.5,44.1,26.44,WNW,293,6.9,7.3,91,0.00,,,0.00,WUHU216HW,2013-05-08 05:06:00,
2013-05-08 01:11:00,46.4,43.9,26.43,WNW,293,4.6,7.6,91,0.00,,,0.00,WUHU216HW,2013-05-08 05:11:00,
2013-05-08 01:16:00,46.4,43.9,26.43,WNW,293,8.9,8.9,91,0.00,,,0.00,WUHU216HW,2013-05-08 05:16:00,
2013-05-08 01:21:00,46.2,43.7,26.43,WNW,293,5.8,8.9,91,0.00,,,0.00,WUHU216HW,2013-05-08 05:21:00,
2013-05-08 01:26:00,46.2,43.7,26.43,WNW,293,5.3,7.1,91,0.00,,,0.00,WUHU216HW,2013-05-08 05:26:00,
2013-05-08 01:31:00,46.2,43.7,26.43,WNW,293,7.1,7.1,91,0.00,,,0.00,WUHU216HW,2013-05-08 05:31:00,
2013-05-08 01:36:00,46.2,43.7,26.43,WNW,293,6.4,10.2,91,0.00,,,0.00,WUHU216HW,2013-05-08 05:36:00,
2013-05-08 01:41:00,46.2,43.7,26.43,WNW,293,4.9,10.2,91,0.00,,,0.00,WUHU216HW,2013-05-08 05:41:00,
2013-05-08 01:46:00,46.2,43.7,26.43,WNW,293,3.8,6.9,91,0.00,,,0.00,WUHU216HW,2013-05-08 05:46:00,
2013-05-08 01:52:00,46.2,43.7,26.43,West,270,0.0,6.2,91,0.00,,,0.00,WUHU216HW,2013-05-08 05:52:00,
2013-05-08 01:57:00,46.0,43.6,26.42,West,270,3.1,5.5,91,0.00,,,0.00,WUHU216HW,2013-05-08 05:57:00,
2013-05-08 02:02:00,46.0,43.6,26.43,WNW,293,3.8,4.9,91,0.00,,,0.00,WUHU216HW,2013-05-08 06:02:00,
2013-05-08 02:07:00,46.0,43.6,26.43,WNW,293,2.2,4.9,91,0.00,,,0.00,WUHU216HW,2013-05-08 06:07:00,
2013-05-08 02:12:00,45.6,42.9,26.43,WNW,293,3.8,4.6,90,0.00,,,0.00,WUHU216HW,2013-05-08 06:12:00,
2013-05-08 02:17:00,45.6,42.9,26.43,WNW,293,6.9,6.9,90,0.00,,,0.00,WUHU216HW,2013-05-08 06:17:00,
2013-05-08 02:22:00,45.6,42.9,26.43,WNW,293,5.8,7.8,90,0.00,,,0.00,WUHU216HW,2013-05-08 06:22:00,
2013-05-08 02:27:00,45.6,42.9,26.42,WNW,293,4.0,7.8,90,0.00,,,0.00,WUHU216HW,2013-05-08 06:27:00,
2013-05-08 02:32:00,45.8,43.1,26.42,WNW,293,6.9,6.9,90,0.00,,,0.00,WUHU216HW,2013-05-08 06:32:00,
2013-05-08 02:37:00,46.0,43.6,26.42,WNW,293,10.0,10.0,91,0.00,,,0.00,WUHU216HW,2013-05-08 06:37:00,
2013-05-08 02:42:00,46.0,43.6,26.42,West,270,7.1,10.0,91,0.00,,,0.00,WUHU216HW,2013-05-08 06:42:00,
2013-05-08 02:47:00,46.0,43.6,26.42,WNW,293,6.7,7.8,91,0.00,,,0.00,WUHU216HW,2013-05-08 06:47:00,
2013-05-08 02:52:00,46.2,43.7,26.42,WNW,293,5.5,7.1,91,0.00,,,0.00,WUHU216HW,2013-05-08 06:52:00,
2013-05-08 02:57:00,46.2,43.7,26.41,WNW,293,2.9,6.7,91,0.00,,,0.00,WUHU216HW,2013-05-08 06:57:00,
2013-05-08 03:02:00,46.2,43.7,26.42,WNW,293,4.0,6.0,91,0.00,,,0.00,WUHU216HW,2013-05-08 07:02:00,
2013-05-08 03:07:00,46.2,43.7,26.42,WNW,293,1.1,4.4,91,0.00,,,0.00,WUHU216HW,2013-05-08 07:07:00,
2013-05-08 03:12:00,46.2,43.7,26.42,WNW,293,6.4,6.4,91,0.00,,,0.00,WUHU216HW,2013-05-08 07:12:00,
2013-05-08 03:17:00,46.2,43.7,26.42,WNW,293,5.8,6.7,91,0.00,,,0.00,WUHU216HW,2013-05-08 07:17:00,
2013-05-08 03:22:00,46.2,43.7,26.42,WNW,293,2.6,6.7,91,0.00,,,0.00,WUHU216HW,2013-05-08 07:22:00,
2013-05-08 03:27:00,46.2,43.7,26.42,WNW,293,0.0,5.8,91,0.00,,,0.00,WUHU216HW,2013-05-08 07:27:00,
2013-05-08 03:32:00,46.0,43.6,26.42,WNW,293,2.2,3.3,91,0.00,,,0.00,WUHU216HW,2013-05-08 07:32:00,
2013-05-08 03:37:00,45.8,43.1,26.42,WNW,293,0.6,3.1,90,0.00,,,0.00,WUHU216HW,2013-05-08 07:37:00,
2013-05-08 03:42:00,45.6,42.9,26.42,West,270,1.1,3.1,90,0.00,,,0.00,WUHU216HW,2013-05-08 07:42:00,
2013-05-08 03:47:00,46.0,43.6,26.43,West,270,0.0,1.1,91,0.00,,,0.00,WUHU216HW,2013-05-08 07:47:00,
2013-05-08 03:52:00,46.0,43.6,26.43,West,270,0.0,1.1,91,0.00,,,0.00,WUHU216HW,2013-05-08 07:52:00,
2013-05-08 03:57:00,46.0,43.6,26.42,West,270,0.0,0.8,91,0.00,,,0.00,WUHU216HW,2013-05-08 07:57:00,
2013-05-08 04:02:00,46.2,43.7,26.42,WNW,293,5.3,5.3,91,0.00,,,0.00,WUHU216HW,2013-05-08 08:02:00,
2013-05-08 04:07:00,46.2,43.7,26.42,WNW,293,1.7,5.3,91,0.00,,,0.00,WUHU216HW,2013-05-08 08:07:00,
2013-05-08 04:12:00,46.2,43.7,26.42,WNW,293,1.7,5.3,91,0.00,,,0.00,WUHU216HW,2013-05-08 08:12:00,
2013-05-08 04:17:00,46.2,43.7,26.42,WNW,293,0.0,3.5,91,0.00,,,0.00,WUHU216HW,2013-05-08 08:17:00,
2013-05-08 04:22:00,46.2,43.7,26.42,WNW,293,2.9,2.9,91,0.00,,,0.00,WUHU216HW,2013-05-08 08:22:00,
2013-05-08 04:27:00,46.2,43.7,26.42,WNW,293,2.6,3.3,91,0.00,,,0.00,WUHU216HW,2013-05-08 08:27:00,
2013-05-08 04:32:00,46.4,43.9,26.42,WNW,293,0.0,4.4,91,0.00,,,0.00,WUHU216HW,2013-05-08 08:32:00,
2013-05-08 04:37:00,46.5,44.1,26.42,WNW,293,0.0,4.4,91,0.00,,,0.00,WUHU216HW,2013-05-08 08:37:00,
2013-05-08 04:42:00,46.4,43.7,26.42,WNW,293,0.0,0.8,91,0.00,,,0.00,WUHU216HW,2013-05-08 08:42:00,
2013-05-08 04:47:00,46.5,44.1,26.42,West,270,1.5,3.1,91,0.00,,,0.00,WUHU216HW,2013-05-08 08:47:00,
2013-05-08 04:52:00,46.5,44.1,26.42,West,270,0.0,3.1,91,0.00,,,0.00,WUHU216HW,2013-05-08 08:52:00,
2013-05-08 04:57:00,46.5,44.1,26.42,West,270,2.4,2.4,91,0.00,,,0.00,WUHU216HW,2013-05-08 08:57:00,
2013-05-08 05:02:00,46.5,44.1,26.42,West,270,0.0,2.4,91,0.00,,,0.00,WUHU216HW,2013-05-08 09:02:00,
2013-05-08 05:07:00,46.7,44.3,26.43,West,270,0.0,2.4,91,0.00,,,0.00,WUHU216HW,2013-05-08 09:07:00,
2013-05-08 05:12:00,46.7,44.3,26.42,West,270,0.0,0.0,91,0.00,,,0.00,WUHU216HW,2013-05-08 09:12:00,
2013-05-08 05:17:00,46.5,44.1,26.43,West,270,0.0,0.0,91,0.00,,,0.00,WUHU216HW,2013-05-08 09:17:00,
2013-05-08 05:22:00,46.5,44.1,26.43,West,270,0.0,0.0,91,0.00,,,0.00,WUHU216HW,2013-05-08 09:22:00,
2013-05-08 05:27:00,46.2,43.7,26.43,West,270,0.0,0.0,91,0.00,,,0.00,WUHU216HW,2013-05-08 09:27:00,
2013-05-08 05:32:00,46.2,43.7,26.43,West,270,0.0,0.0,91,0.00,,,0.00,WUHU216HW,2013-05-08 09:32:00,
2013-05-08 05:37:00,46.2,43.7,26.43,West,270,0.0,0.0,91,0.00,,,0.00,WUHU216HW,2013-05-08 09:37:00,
2013-05-08 05:42:00,46.2,43.7,26.43,West,270,0.0,0.0,91,0.00,,,0.00,WUHU216HW,2013-05-08 09:42:00,
2013-05-08 05:47:00,46.2,43.7,26.43,West,270,0.0,0.0,91,0.00,,,0.00,WUHU216HW,2013-05-08 09:47:00,
2013-05-08 05:52:00,46.2,43.7,26.43,West,270,0.0,0.0,91,0.00,,,0.00,WUHU216HW,2013-05-08 09:52:00,
2013-05-08 05:57:00,46.2,43.7,26.43,West,270,0.0,0.0,91,0.00,,,0.00,WUHU216HW,2013-05-08 09:57:00,
2013-05-08 06:02:00,46.2,43.7,26.43,West,270,0.0,0.0,91,0.00,,,0.00,WUHU216HW,2013-05-08 10:02:00,
2013-05-08 06:07:00,46.2,43.7,26.43,West,270,0.0,0.0,91,0.00,,,0.00,WUHU216HW,2013-05-08 10:07:00,
2013-05-08 06:12:00,46.2,43.7,26.43,West,270,0.0,0.0,91,0.00,,,0.00,WUHU216HW,2013-05-08 10:12:00,
2013-05-08 06:18:00,46.2,43.7,26.43,West,270,0.0,0.0,91,0.00,,,0.00,WUHU216HW,2013-05-08 10:18:00,
2013-05-08 06:23:00,46.2,43.7,26.43,West,270,0.0,0.0,91,0.00,,,0.00,WUHU216HW,2013-05-08 10:23:00,
2013-05-08 06:28:00,46.5,44.1,26.44,West,270,0.0,0.0,91,0.00,,,0.00,WUHU216HW,2013-05-08 10:28:00,
2013-05-08 06:33:00,46.5,44.1,26.44,West,270,0.0,0.0,91,0.00,,,0.00,WUHU216HW,2013-05-08 10:33:00,
2013-05-08 06:38:00,46.5,44.1,26.44,West,270,0.0,0.0,91,0.00,,,0.00,WUHU216HW,2013-05-08 10:38:00,
2013-05-08 06:43:00,46.7,44.3,26.44,West,270,0.0,0.0,91,0.00,,,0.00,WUHU216HW,2013-05-08 10:43:00,
2013-05-08 06:48:00,46.7,44.3,26.44,West,270,0.0,0.0,91,0.00,,,0.00,WUHU216HW,2013-05-08 10:48:00,
2013-05-08 06:53:00,46.9,44.5,26.44,West,270,0.0,0.0,91,0.00,,,0.00,WUHU216HW,2013-05-08 10:53:00,
2013-05-08 06:58:00,46.9,44.5,26.44,West,270,0.0,0.0,91,0.00,,,0.00,WUHU216HW,2013-05-08 10:58:00,
2013-05-08 07:03:00,46.9,44.5,26.44,West,270,0.0,0.0,91,0.00,,,0.00,WUHU216HW,2013-05-08 11:03:00,
2013-05-08 07:08:00,47.1,44.6,26.45,West,270,0.0,0.0,91,0.00,,,0.00,WUHU216HW,2013-05-08 11:08:00,
2013-05-08 07:13:00,47.1,44.6,26.45,West,270,0.0,0.0,91,0.00,,,0.00,WUHU216HW,2013-05-08 11:13:00,
2013-05-08 07:18:00,47.1,44.6,26.45,West,270,0.0,0.0,91,0.00,,,0.00,WUHU216HW,2013-05-08 11:18:00,
2013-05-08 07:23:00,47.1,44.6,26.45,West,270,0.0,0.0,91,0.00,,,0.00,WUHU216HW,2013-05-08 11:23:00,
2013-05-08 07:28:00,47.1,44.6,26.45,West,270,0.6,0.6,91,0.00,,,0.00,WUHU216HW,2013-05-08 11:28:00,
2013-05-08 07:33:00,47.1,44.6,26.45,West,270,0.0,0.6,91,0.00,,,0.00,WUHU216HW,2013-05-08 11:33:00,
2013-05-08 07:38:00,47.3,44.8,26.45,West,270,0.0,0.0,91,0.00,,,0.00,WUHU216HW,2013-05-08 11:38:00,
2013-05-08 07:43:00,47.4,45.0,26.45,West,270,0.0,0.0,91,0.00,,,0.00,WUHU216HW,2013-05-08 11:43:00,
2013-05-08 07:48:00,47.4,45.0,26.45,West,270,0.0,0.0,91,0.00,,,0.00,WUHU216HW,2013-05-08 11:48:00,
2013-05-08 07:53:00,47.4,45.0,26.45,West,270,0.0,0.0,91,0.00,,,0.00,WUHU216HW,2013-05-08 11:53:00,
2013-05-08 07:58:00,47.4,45.0,26.45,West,270,0.0,0.0,91,0.00,,,0.00,WUHU216HW,2013-05-08 11:58:00,
2013-05-08 08:03:00,47.4,45.0,26.46,West,270,0.0,0.0,91,0.00,,,0.00,WUHU216HW,2013-05-08 12:03:00,
2013-05-08 08:08:00,47.3,44.8,26.46,West,270,0.0,0.0,91,0.00,,,0.00,WUHU216HW,2013-05-08 12:08:00,
2013-05-08 08:13:00,47.4,45.0,26.46,West,270,0.0,0.0,91,0.00,,,0.00,WUHU216HW,2013-05-08 12:13:00,
2013-05-08 08:18:00,47.3,44.8,26.45,West,270,0.0,0.0,91,0.00,,,0.00,WUHU216HW,2013-05-08 12:18:00,
2013-05-08 08:23:00,47.4,45.0,26.45,West,270,0.0,2.0,91,0.00,,,0.00,WUHU216HW,2013-05-08 12:23:00,
2013-05-08 08:28:00,47.6,45.2,26.45,West,270,0.0,2.0,91,0.00,,,0.00,WUHU216HW,2013-05-08 12:28:00,
2013-05-08 08:33:00,47.8,45.4,26.45,WNW,293,1.5,2.4,91,0.00,,,0.00,WUHU216HW,2013-05-08 12:33:00,
2013-05-08 08:38:00,48.0,45.5,26.46,WNW,293,3.1,3.1,91,0.00,,,0.00,WUHU216HW,2013-05-08 12:38:00,
2013-05-08 08:43:00,48.3,45.9,26.46,WNW,293,3.1,3.8,91,0.00,,,0.00,WUHU216HW,2013-05-08 12:43:00,
2013-05-08 08:48:00,48.3,45.9,26.46,WNW,293,0.4,6.9,91,0.00,,,0.00,WUHU216HW,2013-05-08 12:48:00,
2013-05-08 08:53:00,48.7,46.2,26.46,NW,315,2.6,6.9,92,0.00,,,0.00,WUHU216HW,2013-05-08 12:53:00,
2013-05-08 08:58:00,48.7,46.2,26.46,NW,315,4.6,4.6,91,0.00,,,0.00,WUHU216HW,2013-05-08 12:58:00,
2013-05-08 09:03:00,48.9,46.6,26.46,WNW,293,6.7,6.7,92,0.00,,,0.00,WUHU216HW,2013-05-08 13:03:00,
2013-05-08 09:08:00,49.1,46.5,26.46,WNW,293,0.0,6.7,91,0.00,,,0.00,WUHU216HW,2013-05-08 13:08:00,
2013-05-08 09:13:00,49.2,46.7,26.46,NW,315,8.9,8.9,91,0.00,,,0.00,WUHU216HW,2013-05-08 13:13:00,
2013-05-08 09:18:00,49.2,46.7,26.46,NW,315,6.7,9.1,91,0.00,,,0.00,WUHU216HW,2013-05-08 13:18:00,
2013-05-08 09:23:00,49.4,46.9,26.46,NW,315,7.3,9.1,91,0.00,,,0.00,WUHU216HW,2013-05-08 13:23:00,
2013-05-08 09:28:00,49.6,47.0,26.46,WNW,293,4.9,7.6,91,0.00,,,0.00,WUHU216HW,2013-05-08 13:28:00,
2013-05-08 09:33:00,49.6,47.0,26.46,WNW,293,7.1,7.3,91,0.00,,,0.00,WUHU216HW,2013-05-08 13:33:00,
2013-05-08 09:38:00,49.6,47.0,26.45,WNW,293,14.0,14.0,91,0.00,,,0.00,WUHU216HW,2013-05-08 13:38:00,
2013-05-08 09:43:00,49.6,47.0,26.45,North,0,12.7,14.0,91,0.00,,,0.00,WUHU216HW,2013-05-08 13:43:00,
2013-05-08 09:48:00,49.6,47.0,26.45,NW,315,7.8,14.0,91,0.00,,,0.00,WUHU216HW,2013-05-08 13:48:00,
2013-05-08 09:53:00,49.8,47.2,26.45,NW,315,8.7,12.5,91,0.00,,,0.00,WUHU216HW,2013-05-08 13:53:00,
2013-05-08 09:58:00,49.8,47.2,26.46,WNW,293,10.2,10.5,91,0.00,,,0.00,WUHU216HW,2013-05-08 13:58:00,
2013-05-08 10:03:00,49.8,47.2,26.46,NNW,338,11.4,11.8,91,0.00,,,0.00,WUHU216HW,2013-05-08 14:03:00,
2013-05-08 10:08:00,50.0,47.4,26.46,WNW,293,8.7,11.8,91,0.00,,,0.00,WUHU216HW,2013-05-08 14:08:00,
2013-05-08 10:13:00,50.1,47.5,26.46,NW,315,8.0,11.4,91,0.00,,,0.00,WUHU216HW,2013-05-08 14:13:00,
2013-05-08 10:18:00,50.1,47.5,26.47,WNW,293,7.1,8.7,91,0.00,,,0.00,WUHU216HW,2013-05-08 14:18:00,
2013-05-08 10:23:00,50.3,47.7,26.46,NW,315,8.9,8.9,91,0.00,,,0.00,WUHU216HW,2013-05-08 14:23:00,
2013-05-08 10:28:00,50.3,47.7,26.46,WNW,293,8.0,8.9,91,0.00,,,0.00,WUHU216HW,2013-05-08 14:28:00,
2013-05-08 10:33:00,50.7,48.1,26.47,WNW,293,7.6,8.9,91,0.00,,,0.00,WUHU216HW,2013-05-08 14:33:00,
2013-05-08 10:38:00,51.0,48.4,26.47,NW,315,8.7,9.8,91,0.00,,,0.00,WUHU216HW,2013-05-08 14:38:00,
2013-05-08 10:43:00,51.4,48.8,26.47,WNW,293,6.9,9.8,91,0.00,,,0.00,WUHU216HW,2013-05-08 14:43:00,
2013-05-08 10:48:00,51.6,49.0,26.47,NW,315,5.1,8.7,91,0.00,,,0.00,WUHU216HW,2013-05-08 14:48:00,
2013-05-08 10:53:00,52.3,49.7,26.47,WNW,293,10.9,10.9,91,0.00,,,0.00,WUHU216HW,2013-05-08 14:53:00,
2013-05-08 10:59:00,52.3,49.7,26.47,WNW,293,7.6,11.8,91,0.00,,,0.00,WUHU216HW,2013-05-08 14:59:00,
2013-05-08 11:04:00,52.8,50.2,26.47,WNW,293,10.5,11.8,91,0.00,,,0.00,WUHU216HW,2013-05-08 15:04:00,
2013-05-08 11:09:00,53.2,50.6,26.47,NW,315,7.1,10.5,91,0.00,,,0.00,WUHU216HW,2013-05-08 15:09:00,
2013-05-08 11:14:00,53.2,50.3,26.47,WNW,293,8.5,12.3,90,0.00,,,0.00,WUHU216HW,2013-05-08 15:14:00,
2013-05-08 11:19:00,53.4,50.5,26.47,West,270,4.9,12.9,90,0.00,,,0.00,WUHU216HW,2013-05-08 15:19:00,
2013-05-08 11:24:00,53.4,50.2,26.47,WNW,293,6.9,12.9,89,0.00,,,0.00,WUHU216HW,2013-05-08 15:24:00,
2013-05-08 11:29:00,53.7,50.5,26.47,NW,315,9.3,9.3,89,0.00,,,0.00,WUHU216HW,2013-05-08 15:29:00,
2013-05-08 11:34:00,53.9,50.4,26.47,WNW,293,11.6,11.6,88,0.00,,,0.00,WUHU216HW,2013-05-08 15:34:00,
2013-05-08 11:39:00,53.7,50.2,26.47,NW,315,7.6,11.6,88,0.00,,,0.00,WUHU216HW,2013-05-08 15:39:00,
2013-05-08 11:44:00,53.4,49.6,26.47,WNW,293,10.7,11.6,87,0.00,,,0.00,WUHU216HW,2013-05-08 15:44:00,
2013-05-08 11:49:00,53.4,49.6,26.47,WNW,293,13.1,13.1,87,0.00,,,0.00,WUHU216HW,2013-05-08 15:49:00,
2013-05-08 11:54:00,53.2,49.4,26.47,NW,315,11.1,13.1,87,0.00,,,0.00,WUHU216HW,2013-05-08 15:54:00,
2013-05-08 11:59:00,53.2,49.1,26.47,NW,315,6.9,13.1,86,0.00,,,0.00,WUHU216HW,2013-05-08 15:59:00,
2013-05-08 12:04:00,52.8,48.7,26.47,NW,315,8.2,10.9,86,0.00,,,0.00,WUHU216HW,2013-05-08 16:04:00,
2013-05-08 12:09:00,52.8,48.7,26.47,NW,315,9.1,10.9,86,0.00,,,0.00,WUHU216HW,2013-05-08 16:09:00,
2013-05-08 12:14:00,52.8,48.7,26.48,WNW,293,10.2,11.4,86,0.00,,,0.00,WUHU216HW,2013-05-08 16:14:00,
2013-05-08 12:19:00,53.2,49.1,26.47,NW,315,9.6,11.4,86,0.00,,,0.00,WUHU216HW,2013-05-08 16:19:00,
2013-05-08 12:24:00,53.2,49.1,26.48,WNW,293,7.8,10.2,86,0.00,,,0.00,WUHU216HW,2013-05-08 16:24:00,
2013-05-08 12:29:00,53.6,49.8,26.48,NW,315,7.6,9.3,87,0.00,,,0.00,WUHU216HW,2013-05-08 16:29:00,
2013-05-08 12:34:00,54.1,50.3,26.48,NNW,338,5.3,10.0,87,0.00,,,0.00,WUHU216HW,2013-05-08 16:34:00,
2013-05-08 12:39:00,54.5,50.3,26.48,West,270,4.4,11.1,86,0.00,,,0.00,WUHU216HW,2013-05-08 16:39:00,
2013-05-08 12:44:00,54.3,49.8,26.48,NW,315,8.2,11.1,85,0.00,,,0.00,WUHU216HW,2013-05-08 16:44:00,
2013-05-08 12:49:00,54.3,49.8,26.47,WNW,293,7.8,8.2,85,0.00,,,0.00,WUHU216HW,2013-05-08 16:49:00,
2013-05-08 12:54:00,54.3,49.8,26.48,WNW,293,10.9,10.9,85,0.00,,,0.00,WUHU216HW,2013-05-08 16:54:00,
2013-05-08 12:59:00,54.3,49.8,26.48,West,270,4.4,10.9,85,0.00,,,0.00,WUHU216HW,2013-05-08 16:59:00,
2013-05-08 13:04:00,54.3,49.8,26.48,NW,315,5.8,7.6,85,0.00,,,0.00,WUHU216HW,2013-05-08 17:04:00,
2013-05-08 13:09:00,54.1,49.3,26.48,NW,315,5.8,11.1,84,0.00,,,0.00,WUHU216HW,2013-05-08 17:09:00,
2013-05-08 13:14:00,53.9,49.2,26.48,NW,315,6.7,11.1,84,0.00,,,0.00,WUHU216HW,2013-05-08 17:14:00,
2013-05-08 13:19:00,53.7,49.0,26.48,NW,315,5.1,7.1,84,0.00,,,0.00,WUHU216HW,2013-05-08 17:19:00,
2013-05-08 13:24:00,53.4,48.7,26.48,WNW,293,7.1,8.5,84,0.00,,,0.00,WUHU216HW,2013-05-08 17:24:00,
2013-05-08 13:29:00,53.4,49.0,26.48,WNW,293,5.5,8.5,85,0.00,,,0.00,WUHU216HW,2013-05-08 17:29:00,
2013-05-08 13:34:00,53.4,49.0,26.48,SW,225,0.0,5.5,85,0.00,,,0.00,WUHU216HW,2013-05-08 17:34:00,
2013-05-08 13:39:00,53.7,49.6,26.48,WNW,293,7.3,7.3,86,0.00,,,0.00,WUHU216HW,2013-05-08 17:39:00,
2013-05-08 13:44:00,54.3,50.1,26.48,NW,315,5.5,7.3,86,0.00,,,0.00,WUHU216HW,2013-05-08 17:44:00,
2013-05-08 13:49:00,54.3,49.8,26.48,NW,315,2.0,7.3,85,0.00,,,0.00,WUHU216HW,2013-05-08 17:49:00,
2013-05-08 13:54:00,54.5,50.0,26.48,WNW,293,5.3,5.5,85,0.00,,,0.00,WUHU216HW,2013-05-08 17:54:00,
2013-05-08 13:59:00,54.5,50.0,26.48,WNW,293,6.2,6.2,85,0.00,,,0.00,WUHU216HW,2013-05-08 17:59:00,
2013-05-08 14:04:00,55.0,50.2,26.47,WNW,293,6.2,6.2,84,0.00,,,0.00,WUHU216HW,2013-05-08 18:04:00,
2013-05-08 14:09:00,55.2,50.3,26.48,West,270,0.0,6.2,84,0.00,,,0.00,WUHU216HW,2013-05-08 18:09:00,
2013-05-08 14:14:00,55.4,50.2,26.48,West,270,7.1,7.1,83,0.00,,,0.00,WUHU216HW,2013-05-08 18:14:00,
2013-05-08 14:19:00,55.2,50.0,26.48,West,270,0.0,7.1,83,0.00,,,0.00,WUHU216HW,2013-05-08 18:19:00,
2013-05-08 14:24:00,55.2,50.0,26.48,WNW,293,1.1,7.1,83,0.00,,,0.00,WUHU216HW,2013-05-08 18:24:00,
2013-05-08 14:29:00,55.0,49.9,26.48,NW,315,0.0,6.0,83,0.00,,,0.00,WUHU216HW,2013-05-08 18:29:00,
2013-05-08 14:34:00,55.0,49.9,26.48,NW,315,0.0,6.0,83,0.00,,,0.00,WUHU216HW,2013-05-08 18:34:00,
2013-05-08 14:40:00,54.6,49.5,26.48,WNW,293,7.8,7.8,83,0.00,,,0.00,WUHU216HW,2013-05-08 18:40:00,
2013-05-08 14:45:00,54.5,49.7,26.48,West,270,4.4,7.8,84,0.00,,,0.00,WUHU216HW,2013-05-08 18:45:00,
2013-05-08 14:50:00,54.3,49.5,26.48,WNW,293,8.9,9.6,84,0.00,,,0.00,WUHU216HW,2013-05-08 18:50:00,
2013-05-08 14:55:00,54.1,49.3,26.48,WNW,293,4.6,9.6,84,0.00,,,0.00,WUHU216HW,2013-05-08 18:55:00,
2013-05-08 15:00:00,53.9,49.5,26.48,West,270,6.7,8.9,85,0.00,,,0.00,WUHU216HW,2013-05-08 19:00:00,
2013-05-08 15:05:00,53.9,49.5,26.48,NW,315,4.9,6.7,85,0.00,,,0.00,WUHU216HW,2013-05-08 19:05:00,
2013-05-08 15:10:00,53.7,49.6,26.48,WNW,293,2.6,6.7,86,0.00,,,0.00,WUHU216HW,2013-05-08 19:10:00,
2013-05-08 15:15:00,53.7,49.6,26.48,WNW,293,0.0,6.7,86,0.00,,,0.00,WUHU216HW,2013-05-08 19:15:00,
2013-05-08 15:20:00,53.4,49.3,26.48,NW,315,5.1,5.1,86,0.00,,,0.00,WUHU216HW,2013-05-08 19:20:00,
2013-05-08 15:25:00,53.4,49.6,26.48,NW,315,2.4,5.1,87,0.00,,,0.00,WUHU216HW,2013-05-08 19:25:00,
2013-05-08 15:30:00,53.4,49.6,26.48,West,270,3.3,5.1,87,0.00,,,0.00,WUHU216HW,2013-05-08 19:30:00,
2013-05-08 15:35:00,53.4,49.9,26.48,West,270,0.0,3.3,87,0.00,,,0.00,WUHU216HW,2013-05-08 19:35:00,
2013-05-08 15:40:00,54.1,50.6,26.48,NW,315,2.9,3.5,88,0.00,,,0.00,WUHU216HW,2013-05-08 19:40:00,
2013-05-08 15:45:00,54.3,50.8,26.48,WNW,293,4.9,4.9,88,0.00,,,0.00,WUHU216HW,2013-05-08 19:45:00,
2013-05-08 15:50:00,54.5,50.9,26.48,NW,315,6.0,6.0,88,0.00,,,0.00,WUHU216HW,2013-05-08 19:50:00,
2013-05-08 15:55:00,54.6,51.1,26.48,NNW,338,5.3,6.0,88,0.00,,,0.00,WUHU216HW,2013-05-08 19:55:00,
2013-05-08 16:00:00,55.0,51.5,26.47,West,270,0.0,6.0,88,0.00,,,0.00,WUHU216HW,2013-05-08 20:00:00,
2013-05-08 16:05:00,55.2,51.6,26.47,WNW,293,0.0,6.0,88,0.00,,,0.00,WUHU216HW,2013-05-08 20:05:00,
2013-05-08 16:10:00,55.4,51.8,26.47,NW,315,0.0,6.7,88,0.00,,,0.00,WUHU216HW,2013-05-08 20:10:00,
2013-05-08 16:15:00,55.5,52.0,26.47,NW,315,4.6,6.7,88,0.00,,,0.00,WUHU216HW,2013-05-08 20:15:00,
2013-05-08 16:20:00,55.5,51.8,26.47,NW,315,0.0,4.6,88,0.00,,,0.00,WUHU216HW,2013-05-08 20:20:00,
2013-05-08 16:25:00,55.5,52.0,26.47,NW,315,1.7,4.6,88,0.00,,,0.00,WUHU216HW,2013-05-08 20:25:00,
2013-05-08 16:30:00,55.5,52.0,26.47,NNW,338,3.8,3.8,88,0.00,,,0.00,WUHU216HW,2013-05-08 20:30:00,
2013-05-08 16:35:00,55.5,51.9,26.48,West,270,4.4,6.0,87,0.00,,,0.00,WUHU216HW,2013-05-08 20:35:00,
2013-05-08 16:40:00,55.7,51.9,26.47,NW,315,4.4,6.0,87,0.00,,,0.00,WUHU216HW,2013-05-08 20:40:00,
2013-05-08 16:45:00,55.9,52.0,26.47,NW,315,3.3,4.4,87,0.00,,,0.00,WUHU216HW,2013-05-08 20:45:00,
2013-05-08 16:50:00,56.3,52.1,26.48,NW,315,4.6,10.2,86,0.00,,,0.00,WUHU216HW,2013-05-08 20:50:00,
2013-05-08 16:55:00,56.4,51.9,26.48,NNW,338,7.6,10.2,85,0.00,,,0.00,WUHU216HW,2013-05-08 20:55:00,
2013-05-08 17:00:00,56.4,51.9,26.48,West,270,3.8,7.6,85,0.00,,,0.00,WUHU216HW,2013-05-08 21:00:00,
2013-05-08 17:05:00,56.4,51.9,26.48,WNW,293,5.5,7.6,85,0.00,,,0.00,WUHU216HW,2013-05-08 21:05:00,
2013-05-08 17:10:00,56.4,51.6,26.48,NW,315,6.0,6.7,84,0.00,,,0.00,WUHU216HW,2013-05-08 21:10:00,
2013-05-08 17:15:00,56.4,51.6,26.49,NW,315,6.7,6.9,84,0.00,,,0.00,WUHU216HW,2013-05-08 21:15:00,
2013-05-08 17:20:00,55.9,50.7,26.48,NNW,338,8.7,8.7,83,0.00,,,0.00,WUHU216HW,2013-05-08 21:20:00,
2013-05-08 17:25:00,55.2,50.0,26.48,NW,315,7.8,8.7,83,0.00,,,0.00,WUHU216HW,2013-05-08 21:25:00,
2013-05-08 17:30:00,54.8,50.0,26.50,NNW,338,6.7,9.6,84,0.00,,,0.00,WUHU216HW,2013-05-08 21:30:00,
2013-05-08 17:35:00,54.3,49.5,26.50,NW,315,5.3,9.6,84,0.00,,,0.00,WUHU216HW,2013-05-08 21:35:00,
2013-05-08 17:40:00,53.9,49.5,26.50,NNW,338,5.3,7.6,85,0.00,,,0.00,WUHU216HW,2013-05-08 21:40:00,
2013-05-08 17:45:00,53.7,49.3,26.50,NW,315,6.9,7.6,85,0.00,,,0.00,WUHU216HW,2013-05-08 21:45:00,
2013-05-08 17:50:00,53.4,49.3,26.50,NW,315,3.8,7.6,86,0.00,,,0.00,WUHU216HW,2013-05-08 21:50:00,
2013-05-08 17:55:00,53.2,49.4,26.50,NW,315,5.5,7.3,87,0.00,,,0.00,WUHU216HW,2013-05-08 21:55:00,
2013-05-08 18:00:00,53.0,49.2,26.50,WNW,293,3.3,7.3,87,0.00,,,0.00,WUHU216HW,2013-05-08 22:00:00,
2013-05-08 18:05:00,53.0,49.2,26.50,NW,315,5.1,6.2,87,0.00,,,0.00,WUHU216HW,2013-05-08 22:05:00,
2013-05-08 18:10:00,53.0,49.2,26.50,WNW,293,6.4,6.4,87,0.00,,,0.00,WUHU216HW,2013-05-08 22:10:00,
2013-05-08 18:15:00,52.8,49.3,26.50,NW,315,5.1,6.4,88,0.00,,,0.00,WUHU216HW,2013-05-08 22:15:00,
2013-05-08 18:20:00,52.8,49.5,26.50,WNW,293,5.1,6.4,88,0.00,,,0.00,WUHU216HW,2013-05-08 22:20:00,
2013-05-08 18:25:00,52.8,49.3,26.50,NW,315,3.1,5.1,88,0.00,,,0.00,WUHU216HW,2013-05-08 22:25:00,
2013-05-08 18:31:00,52.8,49.3,26.50,NW,315,7.3,7.8,88,0.00,,,0.00,WUHU216HW,2013-05-08 22:31:00,
2013-05-08 18:36:00,52.8,49.3,26.51,WNW,293,6.9,7.8,88,0.00,,,0.00,WUHU216HW,2013-05-08 22:36:00,
2013-05-08 18:41:00,52.8,49.3,26.51,WNW,293,7.3,7.6,88,0.00,,,0.00,WUHU216HW,2013-05-08 22:41:00,
2013-05-08 18:46:00,52.8,49.3,26.51,WNW,293,8.9,8.9,88,0.00,,,0.00,WUHU216HW,2013-05-08 22:46:00,
2013-05-08 18:51:00,52.8,49.3,26.51,NW,315,6.2,8.9,88,0.00,,,0.00,WUHU216HW,2013-05-08 22:51:00,
2013-05-08 18:56:00,52.7,49.5,26.51,NW,315,6.4,8.2,89,0.00,,,0.00,WUHU216HW,2013-05-08 22:56:00,
2013-05-08 19:01:00,52.7,49.5,26.51,WNW,293,7.3,8.2,89,0.00,,,0.00,WUHU216HW,2013-05-08 23:01:00,
2013-05-08 19:06:00,52.5,49.3,26.51,WNW,293,6.9,8.0,89,0.00,,,0.00,WUHU216HW,2013-05-08 23:06:00,
2013-05-08 19:11:00,52.5,49.3,26.51,NW,315,4.4,8.0,89,0.00,,,0.00,WUHU216HW,2013-05-08 23:11:00,
2013-05-08 19:16:00,52.5,49.3,26.51,WNW,293,5.3,6.4,89,0.00,,,0.00,WUHU216HW,2013-05-08 23:16:00,
2013-05-08 19:21:00,52.3,49.1,26.51,WNW,293,2.6,6.9,89,0.00,,,0.00,WUHU216HW,2013-05-08 23:21:00,
2013-05-08 19:26:00,52.3,49.1,26.51,WNW,293,0.0,6.9,89,0.00,,,0.00,WUHU216HW,2013-05-08 23:26:00,
2013-05-08 19:31:00,52.5,49.3,26.51,WNW,293,0.8,4.6,89,0.00,,,0.00,WUHU216HW,2013-05-08 23:31:00,
2013-05-08 19:36:00,52.5,49.3,26.52,WNW,293,5.5,6.0,89,0.00,,,0.00,WUHU216HW,2013-05-08 23:36:00,
2013-05-08 19:41:00,52.5,49.3,26.52,WNW,293,3.3,7.8,89,0.00,,,0.00,WUHU216HW,2013-05-08 23:41:00,
2013-05-08 19:46:00,52.5,49.3,26.52,WNW,293,7.8,7.8,89,0.00,,,0.00,WUHU216HW,2013-05-08 23:46:00,
2013-05-08 19:51:00,52.5,49.3,26.52,NNW,338,6.9,7.8,89,0.00,,,0.00,WUHU216HW,2013-05-08 23:51:00,
2013-05-08 19:56:00,52.5,49.3,26.52,NW,315,6.2,7.8,89,0.00,,,0.00,WUHU216HW,2013-05-08 23:56:00,
2013-05-08 20:01:00,52.3,49.1,26.52,WNW,293,7.3,7.3,89,0.00,,,0.00,WUHU216HW,2013-05-09 00:01:00,
2013-05-08 20:06:00,52.3,49.1,26.52,NW,315,7.1,7.3,89,0.00,,,0.00,WUHU216HW,2013-05-09 00:06:00,
2013-05-08 20:11:00,52.3,49.1,26.52,WNW,293,6.2,7.3,89,0.00,,,0.00,WUHU216HW,2013-05-09 00:11:00,
2013-05-08 20:16:00,52.1,48.9,26.52,WNW,293,7.1,7.1,89,0.00,,,0.00,WUHU216HW,2013-05-09 00:16:00,
2013-05-08 20:21:00,52.1,48.9,26.52,West,270,2.2,7.8,89,0.00,,,0.00,WUHU216HW,2013-05-09 00:21:00,
2013-05-08 20:26:00,52.1,49.2,26.52,WNW,293,6.0,10.5,90,0.00,,,0.00,WUHU216HW,2013-05-09 00:26:00,
2013-05-08 20:31:00,52.1,49.2,26.53,WNW,293,5.8,10.5,90,0.00,,,0.00,WUHU216HW,2013-05-09 00:31:00,
2013-05-08 20:36:00,52.1,49.2,26.53,West,270,6.9,6.9,90,0.00,,,0.00,WUHU216HW,2013-05-09 00:36:00,
2013-05-08 20:41:00,52.1,49.2,26.53,WNW,293,8.9,8.9,90,0.00,,,0.00,WUHU216HW,2013-05-09 00:41:00,
2013-05-08 20:46:00,52.1,49.2,26.53,WNW,293,9.1,9.1,90,0.00,,,0.00,WUHU216HW,2013-05-09 00:46:00,
2013-05-08 20:51:00,52.1,49.2,26.53,West,270,6.2,9.1,90,0.00,,,0.00,WUHU216HW,2013-05-09 00:51:00,
2013-05-08 20:56:00,52.1,49.2,26.53,WNW,293,6.2,9.1,90,0.00,,,0.00,WUHU216HW,2013-05-09 00:56:00,
2013-05-08 21:01:00,52.1,49.2,26.53,WNW,293,6.9,7.3,90,0.00,,,0.00,WUHU216HW,2013-05-09 01:01:00,
2013-05-08 21:06:00,52.1,49.2,26.53,West,270,6.7,7.8,90,0.00,,,0.00,WUHU216HW,2013-05-09 01:06:00,
2013-05-08 21:11:00,52.1,49.2,26.53,WNW,293,5.5,7.8,90,0.00,,,0.00,WUHU216HW,2013-05-09 01:11:00,
2013-05-08 21:16:00,52.1,49.2,26.53,West,270,4.6,7.6,90,0.00,,,0.00,WUHU216HW,2013-05-09 01:16:00,
2013-05-08 21:21:00,51.9,49.1,26.53,WNW,293,4.4,6.2,90,0.00,,,0.00,WUHU216HW,2013-05-09 01:21:00,
2013-05-08 21:26:00,51.9,49.1,26.53,WNW,293,5.3,5.3,90,0.00,,,0.00,WUHU216HW,2013-05-09 01:26:00,
2013-05-08 21:31:00,51.9,49.1,26.53,WNW,293,10.0,10.0,90,0.00,,,0.00,WUHU216HW,2013-05-09 01:31:00,
2013-05-08 21:36:00,51.9,49.1,26.53,WNW,293,6.9,10.0,90,0.00,,,0.00,WUHU216HW,2013-05-09 01:36:00,
2013-05-08 21:41:00,51.8,48.9,26.53,WNW,293,7.3,10.0,90,0.00,,,0.00,WUHU216HW,2013-05-09 01:41:00,
2013-05-08 21:46:00,51.6,48.7,26.53,WNW,293,7.6,8.0,90,0.00,,,0.00,WUHU216HW,2013-05-09 01:46:00,
2013-05-08 21:51:00,51.6,48.7,26.53,WNW,293,9.1,9.1,90,0.00,,,0.00,WUHU216HW,2013-05-09 01:51:00,
2013-05-08 21:56:00,51.6,48.7,26.54,WNW,293,8.9,9.6,90,0.00,,,0.00,WUHU216HW,2013-05-09 01:56:00,
2013-05-08 22:01:00,51.6,48.7,26.54,WNW,293,6.9,9.6,90,0.00,,,0.00,WUHU216HW,2013-05-09 02:01:00,
2013-05-08 22:06:00,51.6,48.7,26.54,WNW,293,12.0,12.0,90,0.00,,,0.00,WUHU216HW,2013-05-09 02:06:00,
2013-05-08 22:11:00,51.6,48.7,26.55,WNW,293,7.1,12.0,90,0.00,,,0.00,WUHU216HW,2013-05-09 02:11:00,
2013-05-08 22:16:00,51.6,48.7,26.55,WNW,293,5.8,12.0,90,0.00,,,0.00,WUHU216HW,2013-05-09 02:16:00,
2013-05-08 22:21:00,51.6,48.7,26.55,WNW,293,7.3,10.9,90,0.00,,,0.00,WUHU216HW,2013-05-09 02:21:00,
2013-05-08 22:26:00,51.6,48.7,26.55,WNW,293,6.9,10.9,90,0.00,,,0.00,WUHU216HW,2013-05-09 02:26:00,
2013-05-08 22:31:00,51.6,48.7,26.55,WNW,293,6.9,8.2,90,0.00,,,0.00,WUHU216HW,2013-05-09 02:31:00,
2013-05-08 22:37:00,51.6,48.7,26.55,West,270,7.8,8.5,90,0.00,,,0.00,WUHU216HW,2013-05-09 02:37:00,
2013-05-08 22:42:00,51.6,48.7,26.55,WNW,293,10.5,10.5,90,0.00,,,0.00,WUHU216HW,2013-05-09 02:42:00,
2013-05-08 22:47:00,51.6,48.7,26.55,NW,315,6.4,10.5,90,0.00,,,0.00,WUHU216HW,2013-05-09 02:47:00,
2013-05-08 22:52:00,51.6,48.4,26.55,WNW,293,9.3,10.5,89,0.00,,,0.00,WUHU216HW,2013-05-09 02:52:00,
2013-05-08 22:57:00,51.6,48.4,26.55,WNW,293,7.3,9.3,89,0.00,,,0.00,WUHU216HW,2013-05-09 02:57:00,
2013-05-08 23:02:00,51.6,48.4,26.55,WNW,293,7.8,9.3,89,0.00,,,0.00,WUHU216HW,2013-05-09 03:02:00,
2013-05-08 23:07:00,51.4,48.2,26.54,WNW,293,6.9,7.8,89,0.00,,,0.00,WUHU216HW,2013-05-09 03:07:00,
2013-05-08 23:12:00,51.4,48.2,26.54,WNW,293,7.8,8.5,89,0.00,,,0.00,WUHU216HW,2013-05-09 03:12:00,
2013-05-08 23:17:00,51.4,48.2,26.54,WNW,293,6.9,8.7,89,0.00,,,0.00,WUHU216HW,2013-05-09 03:17:00,
2013-05-08 23:22:00,51.4,48.2,26.55,WNW,293,6.0,8.7,89,0.00,,,0.00,WUHU216HW,2013-05-09 03:22:00,
2013-05-08 23:27:00,51.4,47.8,26.54,NW,315,7.3,7.8,89,0.00,,,0.00,WUHU216HW,2013-05-09 03:27:00,
2013-05-08 23:32:00,51.0,47.8,26.54,NW,315,6.9,7.8,89,0.00,,,0.00,WUHU216HW,2013-05-09 03:32:00,
2013-05-08 23:37:00,50.9,47.7,26.55,NW,315,6.2,7.3,89,0.00,,,0.00,WUHU216HW,2013-05-09 03:37:00,
2013-05-08 23:42:00,50.7,47.7,26.55,NW,315,6.7,7.1,89,0.00,,,0.00,WUHU216HW,2013-05-09 03:42:00,
2013-05-08 23:47:00,50.7,47.5,26.54,NW,315,6.4,7.3,89,0.00,,,0.00,WUHU216HW,2013-05-09 03:47:00,
2013-05-08 23:52:00,50.7,47.5,26.54,NW,315,8.0,8.0,89,0.00,,,0.00,WUHU216HW,2013-05-09 03:52:00,
2013-05-08 23:57:00,50.7,47.5,26.54,WNW,293,7.1,8.0,89,0.00,,,0.00,WUHU216HW,2013-05-09 03:57:00,